Flight Track Log - Related Links

Times and Time Zones

All times are in EDT time to prevent confusion due to time zone crossing. See the N30898 flight status page for this flight to view local times or setup timezone preferences in your user account.

Time Position Orientation Groundspeed Altitude Reporting Facility
EDT Latitude Longitude Course Direction KTS MPH feet Rate Location/Type
Sat 04:50:38 PM 35.3500 -89.8833 158° South 126 145 600  Level KMEM
Sat 04:51:35 PM 35.3167 -89.8667 158° South 137 158 1,700 1,231 Climbing KMEM
Sat 04:52:35 PM 35.3333 -89.8167 68° East 145 167 3,000 1,250 Climbing KMEM
Sat 04:53:35 PM 35.3333 -89.7667 90° East 143 165 4,200 1,220 Climbing KMEM
Sat 04:54:38 PM 35.3167 -89.7167 112° Southeast 140 161 5,500 1,209 Climbing KMEM
Sat 04:55:44 PM 35.3167 -89.6667 90° East 146 168 6,800 1,171 Climbing KMEM
Sat 04:56:41 PM 35.3000 -89.6167 112° Southeast 163 188 7,900 1,238 Climbing KMEM
Sat 04:57:50 PM 35.3000 -89.5500 90° East 169 194 9,400 1,220 Climbing KMEM
Sat 04:58:39 PM 35.2833 -89.5000 112° Southeast 171 197 10,300 1,000 Climbing KMEM
Sat 04:59:32 PM 35.2794 -89.4542 96° East 175 201 11,100 1,115 Climbing Memphis Center
Sat 05:00:32 PM 35.2686 -89.3983 103° East 177 204 12,400 1,200 Climbing Memphis Center
Sat 05:01:32 PM 35.2658 -89.3397 93° East 178 205 13,500 800 Climbing Memphis Center
Sat 05:02:32 PM 35.2633 -89.2736 93° East 184 212 14,000 250 Climbing Memphis Center
Sat 05:03:32 PM 35.2606 -89.2000 93° East 190 219 14,000 250 Level Memphis Center
Sat 05:04:32 PM 35.2683 -89.1311 82° East 198 228 14,500 450 Climbing Memphis Center
Sat 05:05:32 PM 35.2886 -89.0700 68° East 198 228 14,900 250 Climbing Memphis Center
Sat 05:06:32 PM 35.3108 -89.0033 68° East 203 234 15,000 50 Climbing Memphis Center
Sat 05:07:32 PM 35.3328 -88.9317 69° East 213 245 15,000  Level Memphis Center
Sat 05:08:32 PM 35.3531 -88.8628 70° East 218 251 15,000  Level Memphis Center
Sat 05:09:32 PM 35.3750 -88.7911 69° East 218 251 15,000  Level Memphis Center
Sat 05:10:32 PM 35.3928 -88.7194 73° East 218 251 15,000  Level Memphis Center
Sat 05:11:32 PM 35.4108 -88.6553 71° East 218 251 15,000  Level Memphis Center
Sat 05:12:32 PM 35.4328 -88.5836 69° East 218 251 15,000  Level Memphis Center
Sat 05:13:32 PM 35.4525 -88.5142 71° East 213 245 15,000  Level Memphis Center
Sat 05:14:33 PM 35.4722 -88.4425 71° East 213 245 15,000  Level Memphis Center
Sat 05:15:32 PM 35.4922 -88.3783 69° East 208 239 15,000  Level Memphis Center
Sat 05:16:32 PM 35.5139 -88.3114 68° East 208 239 15,000  Level Memphis Center
Sat 05:17:32 PM 35.5317 -88.2422 72° East 208 239 15,000  Level Memphis Center
Sat 05:18:32 PM 35.5533 -88.1728 69° East 208 239 15,000 -150 Level Memphis Center
Sat 05:19:32 PM 35.5731 -88.1033 71° East 202 232 14,700 -200 Descending Memphis Center
Sat 05:20:32 PM 35.5925 -88.0339 71° East 202 232 14,600 -100 Descending Memphis Center
Sat 05:21:32 PM 35.6100 -87.9669 72° East 210 242 14,500 -100 Descending Memphis Center
Sat 05:22:32 PM 35.6294 -87.8972 71° East 205 236 14,400 -50 Descending Memphis Center
Sat 05:23:32 PM 35.6511 -87.8278 69° East 210 242 14,400  Level Memphis Center
Sat 05:24:32 PM 35.6683 -87.7583 73° East 210 242 14,400 -50 Level Memphis Center
Sat 05:25:32 PM 35.6897 -87.6886 69° East 210 242 14,300 -50 Descending Memphis Center
Sat 05:26:32 PM 35.7072 -87.6189 73° East 210 242 14,300 50 Level Memphis Center
Sat 05:27:32 PM 35.7264 -87.5467 72° East 210 242 14,400 -500 Climbing Memphis Center
Sat 05:28:32 PM 35.7436 -87.4872 70° East 210 242 13,300 -1,300 Descending Memphis Center
Sat 05:29:32 PM 35.7631 -87.4225 70° East 203 234 11,800 -1,350 Descending Memphis Center
Sat 05:30:32 PM 35.7764 -87.3683 73° East 182 209 10,600 -1,150 Descending Memphis Center
Sat 05:31:32 PM 35.7917 -87.3167 70° East 167 192 9,500 -800 Descending Memphis Center
Sat 05:32:32 PM 35.8072 -87.2622 71° East 167 192 9,000 -250 Descending Memphis Center
Sat 05:33:32 PM 35.8244 -87.2028 70° East 173 199 9,000 -150 Level Memphis Center
Sat 05:34:32 PM 35.8375 -87.1433 75° East 178 205 8,700 -600 Descending Memphis Center
Sat 05:35:32 PM 35.8567 -87.0786 70° East 178 205 7,800 -900 Descending Memphis Center
Sat 05:36:32 PM 35.8697 -87.0192 75° East 178 205 6,900 -900 Descending Memphis Center
Sat 05:37:32 PM 35.8639 -86.9606 97° East 166 191 6,000 -900 Descending Memphis Center
Sat 05:38:32 PM 35.8561 -86.9019 99° East 166 191 5,100 -900 Descending Memphis Center
Sat 05:39:32 PM 35.8500 -86.8381 97° East 177 204 4,200 -900 Descending Memphis Center
Sat 05:40:32 PM 35.8442 -86.7744 96° East 177 204 3,300 -550 Descending Memphis Center
Sat 05:41:32 PM 35.8361 -86.7133 99° East 177 204 3,100 250 Descending Memphis Center
Sat 05:42:32 PM 35.8322 -86.6519 94° East 177 204 3,800 200 Climbing Memphis Center
Sat 05:43:32 PM 35.8261 -86.5883 97° East 182 209 3,500 -258 Descending Memphis Center
Sat 05:45:38 PM 35.8167 -86.4667 95° East 143 165 3,000 -161 Descending Nashville TRACON
Sat 05:46:38 PM 35.8167 -86.4167 90° East 142 163 3,000  Level Nashville TRACON
Sat 05:47:32 PM 35.8500 -86.4000 22° Northeast 141 162 3,000  Level Nashville TRACON
Sat 05:48:32 PM 35.8833 -86.3833 22° Northeast 139 160 3,000  Level Nashville TRACON
Sat 05:49:32 PM 35.9000 -86.4000 321° Northwest 137 158 3,000 -400 Level Nashville TRACON
Sat 05:50:32 PM 35.9333 -86.4333 321° Northwest 146 168 2,200 -800 Descending Nashville TRACON
Sat 05:54:00 PM 35.9912 -86.5056 315° West  Level FlightAware Approximate
Sat 06:01:00 PM 36.0000 -86.5167 328° Northwest  Level FlightAware Approximate
Sat 06:02:00 PM 36.0090 -86.5201 328° Northwest  Level Estimated
Sat 06:03:00 PM 36.0090 -86.5201 328° Northwest  Level Estimated
Sat 06:04:00 PM 36.0090 -86.5201 328° Northwest  Level Estimated

Login

Don't have an account? Register now (free) for customized features, flight alerts, and more!